Aérodrome :
LOGIN :

S'inscrire | Disclaimer

   EN    FR    IT 

 










Légende :    VFR   VFR Marginal   IFR   IFR Intensif   IFR Très Intensif
Visi : 
Plafond : 
>= 8 km
>= 3000ft
5 à 8 km
1000 à 3000 ft
1500m à 5 km
500 à 1000 ft
800 à 1500m
200 à 500 ft
< 800m
< 200 ft
Symboles :   Orages  Brouillard  Fortes neiges  Fortes précipitations  Vent > 20 kt
SIGMETs :   Divers  Orages  Givrage  Turbulence  Onde Orograph.  Cendres Volcan.







- Altitude de l'aérodrome : 49 ft
- Code IATA : GLZ


EHGR - Gilze-Rijen Airbase

DERNIER METAR :
  • 192255Z AUTO 20004KT 170V240 9999 OVC120 04/02 Q1021 BLU

METARs EXPIRÉS :
  • 192225Z AUTO 21004KT 190V260 9999 OVC120 05/03 Q1021 BLU
  • 192202Z AUTO 22003KT 9999 OVC140 04/02 Q1021 BLU
  • 192155Z AUTO 22004KT 9999 SCT160 SCT240 04/02 Q1021 BLU 21005KT CAVOK
  • 192132Z AUTO 21004KT 9999 FEW180 SCT230 05/02 Q1021 BLU 21005KT CAVOK
  • 192125Z AUTO 21003KT 9999 BKN180 BKN250 05/02 Q1021 BLU 25005KT CAVOK
  • 192055Z AUTO 22003KT 200V260 9999 OVC160 06/03 Q1020 BLU 25005KT CAVOK
  • 192025Z AUTO 21003KT 190V270 9999 OVC140 05/03 Q1020 BLU 25005KT CAVOK

TAF TAF EHGR
Valide du 19 à 18h jusqu'au 20 à 06h UTC


191625Z 1918/2006 23007KT CAVOK
Pas de NOTAMs connus pour ce terrain.



MET'MAP, la Météo Aéronautique d'un coup d'oeil ! - Copyright ORBIFLY Décembre 2007 - Disclaimer

ORBIFLY MET'MAP TEAM :

Programmation & Développement : Alexandra Zaïnal
Conception & Développement : Baudouin d'Aumeries
Co-Programmation & Développement : Marc-Olivier Méhu
Soutien technique & logistique : Manuel Goepfert

Contact : metmap@orbifly.com




SOURCES & CREDITS :

   NOAA